createdAt,value
2023-05-04T00:00:11.450Z,15.10
2023-05-04T00:02:44.715Z,15.40
2023-05-04T00:07:49.896Z,15.10
2023-05-04T00:10:22.078Z,15.40
2023-05-04T00:12:54.996Z,15.30
2023-05-04T00:18:00.607Z,14.80
2023-05-04T00:20:33.252Z,14.90
2023-05-04T00:25:38.678Z,14.80
2023-05-04T00:28:11.582Z,15.10
2023-05-04T00:30:43.736Z,14.80
2023-05-04T00:36:11.012Z,14.40
2023-05-04T00:38:54.864Z,14.50
2023-05-04T00:41:27.373Z,13.90
2023-05-04T00:43:59.866Z,14.50
2023-05-04T00:46:34.829Z,14.00
2023-05-04T00:49:08.496Z,14.20
2023-05-04T00:51:41.098Z,13.90
2023-05-04T00:54:18.451Z,14.20
2023-05-04T00:56:50.467Z,13.80
2023-05-04T00:59:23.340Z,13.70
2023-05-04T01:01:55.397Z,13.60
2023-05-04T01:04:28.283Z,14.10
2023-05-04T01:07:21.795Z,14.00
2023-05-04T01:10:05.456Z,14.10
2023-05-04T01:12:49.095Z,14.80
2023-05-04T01:15:23.154Z,13.60
2023-05-04T01:17:55.167Z,14.10
2023-05-04T01:20:28.385Z,14.00
2023-05-04T01:23:02.104Z,14.30
2023-05-04T01:26:04.393Z,13.40
2023-05-04T01:28:45.162Z,13.90
2023-05-04T01:31:23.410Z,14.20
2023-05-04T01:33:56.548Z,14.50
2023-05-04T01:36:29.668Z,14.50
2023-05-04T01:39:02.641Z,14.00
2023-05-04T01:41:57.523Z,14.00
2023-05-04T01:47:02.550Z,14.10
2023-05-04T01:49:34.908Z,14.00
2023-05-04T01:52:07.311Z,14.10
2023-05-04T01:54:39.295Z,13.70
2023-05-04T02:00:06.248Z,13.90
2023-05-04T02:05:24.142Z,14.00
2023-05-04T02:07:56.481Z,13.40
2023-05-04T02:13:01.856Z,13.50
2023-05-04T02:15:33.888Z,13.90
2023-05-04T02:18:28.190Z,14.10
2023-05-04T02:23:33.923Z,13.80
2023-05-04T02:26:06.705Z,13.10
2023-05-04T02:28:39.508Z,13.00
2023-05-04T02:31:11.912Z,12.60
2023-05-04T02:33:44.376Z,12.70
2023-05-04T02:38:49.525Z,13.60
2023-05-04T02:43:54.605Z,13.10
2023-05-04T02:51:31.978Z,13.30
2023-05-04T02:56:37.403Z,13.50
2023-05-04T02:59:10.778Z,13.80
2023-05-04T03:06:48.921Z,14.10
2023-05-04T03:11:54.313Z,14.20
2023-05-04T03:14:26.388Z,14.00
2023-05-04T03:16:59.659Z,13.90
2023-05-04T03:22:04.790Z,12.50
2023-05-04T03:24:38.164Z,12.10
2023-05-04T03:27:10.558Z,12.10
2023-05-04T03:29:43.674Z,12.00
2023-05-04T03:32:17.013Z,11.90
2023-05-04T03:34:49.146Z,11.80
2023-05-04T03:37:23.970Z,11.70
2023-05-04T03:39:56.180Z,11.50
2023-05-04T03:42:29.061Z,11.40
2023-05-04T03:47:37.423Z,11.40
2023-05-04T03:50:11.144Z,11.20
2023-05-04T03:52:43.468Z,11.20
2023-05-04T03:57:54.520Z,11.10
2023-05-04T04:03:08.343Z,11.30
2023-05-04T04:08:15.059Z,11.30
2023-05-04T04:13:20.379Z,10.70
2023-05-04T04:15:52.341Z,10.70
2023-05-04T04:18:25.099Z,10.60
2023-05-04T04:20:57.074Z,10.40
2023-05-04T04:26:02.786Z,10.30
2023-05-04T04:28:34.677Z,10.30
2023-05-04T04:31:07.444Z,10.30
2023-05-04T04:33:39.347Z,10.30
2023-05-04T04:36:13.117Z,10.30
2023-05-04T04:38:47.233Z,10.30
2023-05-04T04:46:25.385Z,10.20
2023-05-04T04:56:40.902Z,10.20
2023-05-04T04:59:14.053Z,10.20
2023-05-04T05:01:47.090Z,10.20
2023-05-04T05:04:19.638Z,10.20
2023-05-04T05:06:54.519Z,10.30
2023-05-04T05:11:59.674Z,10.40
2023-05-04T05:14:35.147Z,10.40
2023-05-04T05:19:42.354Z,10.50
2023-05-04T05:22:15.049Z,10.50
2023-05-04T05:24:47.673Z,10.50
2023-05-04T05:35:23.325Z,10.80
2023-05-04T05:37:55.362Z,10.90
2023-05-04T05:40:28.986Z,11.10
2023-05-04T05:45:37.884Z,11.20
2023-05-04T05:48:09.863Z,11.30
2023-05-04T05:50:43.197Z,11.40
2023-05-04T05:53:15.294Z,11.50
2023-05-04T06:00:54.926Z,11.80
2023-05-04T06:03:28.320Z,11.80
2023-05-04T06:08:33.959Z,12.00
2023-05-04T06:11:06.212Z,12.10
2023-05-04T06:16:12.663Z,12.20
2023-05-04T06:18:44.758Z,12.90
2023-05-04T06:29:00.059Z,13.60
2023-05-04T06:31:31.994Z,14.50
2023-05-04T06:34:04.845Z,15.00
2023-05-04T06:36:37.279Z,15.30
2023-05-04T06:39:10.351Z,15.00
2023-05-04T06:49:26.761Z,15.10
2023-05-04T06:51:58.625Z,15.40
2023-05-04T06:54:31.936Z,15.70
2023-05-04T06:57:04.945Z,15.70
2023-05-04T06:59:38.000Z,16.00
2023-05-04T07:04:44.562Z,15.50
2023-05-04T07:07:16.592Z,15.30
2023-05-04T07:09:51.590Z,15.20
2023-05-04T07:15:17.882Z,15.20
2023-05-04T07:20:26.585Z,16.30
2023-05-04T07:23:51.827Z,17.70
2023-05-04T07:26:27.645Z,20.30
2023-05-04T07:31:34.113Z,22.60
2023-05-04T07:36:43.179Z,24.30
2023-05-04T07:39:18.333Z,24.30
2023-05-04T07:41:52.308Z,25.00
2023-05-04T07:44:24.165Z,25.20
2023-05-04T07:49:33.119Z,24.80
2023-05-04T07:52:06.240Z,25.20
2023-05-04T07:54:46.059Z,24.30
2023-05-04T07:57:18.348Z,24.50
2023-05-04T07:59:55.999Z,23.90
2023-05-04T08:02:55.167Z,24.90
2023-05-04T08:05:27.553Z,25.20
2023-05-04T08:08:03.258Z,25.30
2023-05-04T08:10:47.140Z,26.50
2023-05-04T08:18:44.041Z,26.50
2023-05-04T08:21:16.032Z,25.30
2023-05-04T08:23:53.025Z,24.90
2023-05-04T08:26:25.006Z,24.50
2023-05-04T08:29:11.066Z,25.40
2023-05-04T08:34:17.254Z,26.40
2023-05-04T08:41:56.982Z,26.40
2023-05-04T08:44:29.514Z,26.70
2023-05-04T08:47:07.382Z,25.60
2023-05-04T08:49:46.872Z,25.50
2023-05-04T08:58:17.293Z,25.70
2023-05-04T09:00:50.429Z,27.00
2023-05-04T09:08:31.835Z,25.80
2023-05-04T09:11:05.472Z,26.80
2023-05-04T09:13:38.630Z,26.90
2023-05-04T09:16:12.805Z,27.80
2023-05-04T09:18:47.398Z,27.40
2023-05-04T09:21:32.722Z,26.20
2023-05-04T09:24:05.534Z,26.40
2023-05-04T09:26:38.526Z,26.70
2023-05-04T09:29:16.129Z,26.60
2023-05-04T09:31:51.356Z,26.00
2023-05-04T09:34:24.151Z,25.40
2023-05-04T09:37:04.151Z,25.20
2023-05-04T09:42:18.938Z,24.90
2023-05-04T09:45:08.937Z,25.40
2023-05-04T09:47:43.743Z,25.30
2023-05-04T09:50:23.261Z,25.70
2023-05-04T09:52:57.113Z,25.60
2023-05-04T09:58:03.454Z,25.60
2023-05-04T10:00:36.843Z,25.20
2023-05-04T10:08:17.437Z,25.40
2023-05-04T10:10:50.486Z,25.50
2023-05-04T10:13:24.865Z,24.80
2023-05-04T10:16:26.076Z,25.10
2023-05-04T10:19:10.214Z,25.10
2023-05-04T10:22:29.228Z,25.20
2023-05-04T10:25:27.994Z,25.50
2023-05-04T10:28:40.952Z,25.50
2023-05-04T10:31:12.962Z,24.70
2023-05-04T10:33:46.847Z,24.90
2023-05-04T10:36:18.931Z,25.20
2023-05-04T10:38:51.972Z,25.30
2023-05-04T10:44:18.589Z,25.80
2023-05-04T10:46:59.726Z,25.60
2023-05-04T10:49:34.765Z,25.50
2023-05-04T10:52:17.929Z,24.80
2023-05-04T10:55:03.578Z,25.00
2023-05-04T10:57:51.749Z,25.10
2023-05-04T11:00:38.872Z,25.50
2023-05-04T11:03:13.791Z,25.60
2023-05-04T11:05:50.855Z,25.50
2023-05-04T11:08:26.524Z,25.50
2023-05-04T11:11:07.220Z,25.60
2023-05-04T11:13:48.634Z,25.70
2023-05-04T11:16:27.710Z,26.20
2023-05-04T11:19:18.701Z,26.50
2023-05-04T11:21:50.935Z,26.90
2023-05-04T11:24:48.021Z,26.50
2023-05-04T11:27:29.066Z,26.20
2023-05-04T11:30:07.478Z,25.80
2023-05-04T11:32:49.589Z,25.50
2023-05-04T11:35:26.028Z,25.80
2023-05-04T11:37:58.595Z,26.30
2023-05-04T11:40:31.642Z,26.30
2023-05-04T11:43:04.291Z,26.20
2023-05-04T11:45:38.870Z,25.90
2023-05-04T11:48:11.101Z,25.90
2023-05-04T11:50:46.845Z,25.80
2023-05-04T11:53:22.158Z,26.00
2023-05-04T11:56:02.893Z,26.10
2023-05-04T11:58:35.117Z,26.30
2023-05-04T12:01:08.317Z,26.30
2023-05-04T12:03:53.196Z,26.50
2023-05-04T12:06:34.184Z,25.60
2023-05-04T12:09:06.833Z,25.90
2023-05-04T12:11:40.669Z,26.50
2023-05-04T12:16:55.705Z,26.30
2023-05-04T12:19:27.703Z,26.10
2023-05-04T12:22:04.389Z,26.10
2023-05-04T12:27:16.820Z,26.80
2023-05-04T12:29:48.825Z,27.30
2023-05-04T12:37:28.339Z,26.70
2023-05-04T12:40:00.536Z,27.10
2023-05-04T12:42:33.801Z,26.80
2023-05-04T12:45:06.641Z,27.20
2023-05-04T12:47:40.125Z,27.50
2023-05-04T12:52:46.517Z,27.20
2023-05-04T12:55:19.431Z,27.30
2023-05-04T13:00:46.177Z,26.50
2023-05-04T13:03:19.268Z,26.40
2023-05-04T13:10:57.489Z,26.60
2023-05-04T13:21:33.082Z,26.80
2023-05-04T13:24:07.804Z,26.80
2023-05-04T13:26:39.710Z,26.30
2023-05-04T13:29:12.525Z,26.20
2023-05-04T13:31:45.363Z,26.70
2023-05-04T13:34:18.658Z,27.40
2023-05-04T13:36:50.795Z,27.10
2023-05-04T13:39:24.163Z,27.10
2023-05-04T13:41:56.449Z,27.30
2023-05-04T13:44:28.941Z,27.10
2023-05-04T13:47:03.575Z,26.80
2023-05-04T13:49:40.396Z,27.00
2023-05-04T13:57:19.244Z,27.40
2023-05-04T14:00:05.894Z,27.10
2023-05-04T14:02:43.236Z,27.10
2023-05-04T14:05:16.198Z,27.00
2023-05-04T14:07:48.238Z,26.80
2023-05-04T14:10:21.413Z,26.80
2023-05-04T14:12:53.787Z,26.90
2023-05-04T14:18:00.842Z,27.00
2023-05-04T14:20:32.977Z,27.00
2023-05-04T14:28:11.636Z,26.70
2023-05-04T14:30:44.016Z,26.90
2023-05-04T14:33:16.725Z,26.70
2023-05-04T14:35:49.636Z,26.60
2023-05-04T14:38:21.498Z,26.70
2023-05-04T14:40:59.067Z,26.80
2023-05-04T14:48:37.719Z,27.30
2023-05-04T14:54:07.588Z,27.30
2023-05-04T14:56:40.108Z,27.00
2023-05-04T14:59:12.435Z,27.10
2023-05-04T15:04:21.910Z,27.20
2023-05-04T15:06:53.809Z,27.30
2023-05-04T15:11:59.255Z,27.40
2023-05-04T15:14:32.131Z,27.60
2023-05-04T15:17:05.596Z,27.50
2023-05-04T15:19:39.693Z,27.40
2023-05-04T15:22:11.594Z,27.30
2023-05-04T15:27:16.840Z,26.90
2023-05-04T15:29:49.774Z,26.50
2023-05-04T15:35:04.471Z,26.00
2023-05-04T15:37:38.253Z,26.00
2023-05-04T15:40:11.920Z,26.00
2023-05-04T15:45:37.481Z,26.20
2023-05-04T15:48:09.928Z,26.50
2023-05-04T15:50:42.854Z,26.60
2023-05-04T15:53:15.674Z,26.60
2023-05-04T15:55:48.437Z,26.90
2023-05-04T15:58:20.859Z,27.00
2023-05-04T16:00:52.810Z,27.10
2023-05-04T16:03:26.143Z,27.10
2023-05-04T16:05:58.506Z,27.10
2023-05-04T16:08:31.828Z,27.00
2023-05-04T16:11:04.511Z,26.70
2023-05-04T16:13:37.925Z,26.60
2023-05-04T16:16:10.076Z,26.50
2023-05-04T16:26:21.086Z,26.70
2023-05-04T16:28:53.980Z,26.60
2023-05-04T16:33:58.728Z,26.60
2023-05-04T16:39:04.759Z,26.70
2023-05-04T16:41:36.833Z,26.40
2023-05-04T16:44:09.766Z,26.10
2023-05-04T16:46:41.986Z,26.10
2023-05-04T16:51:47.371Z,26.30
2023-05-04T16:54:21.011Z,26.40
2023-05-04T16:59:26.250Z,26.30
2023-05-04T17:01:59.732Z,26.30
2023-05-04T17:04:32.452Z,26.30
2023-05-04T17:07:04.498Z,26.20
2023-05-04T17:09:37.762Z,26.10
2023-05-04T17:12:09.683Z,26.10
2023-05-04T17:14:43.577Z,25.90
2023-05-04T17:22:21.740Z,25.60
2023-05-04T17:24:54.487Z,25.70
2023-05-04T17:29:59.944Z,25.20
2023-05-04T17:35:20.078Z,25.00
2023-05-04T17:37:58.751Z,24.90
2023-05-04T17:40:32.019Z,24.80
2023-05-04T17:43:04.301Z,24.70
2023-05-04T17:48:09.381Z,24.60
2023-05-04T17:53:14.584Z,24.70
2023-05-04T17:55:46.970Z,24.70
2023-05-04T18:00:52.994Z,24.50
2023-05-04T18:05:58.627Z,24.40
2023-05-04T18:08:31.561Z,24.40
2023-05-04T18:11:03.928Z,24.30
2023-05-04T18:16:09.264Z,24.20
2023-05-04T18:18:42.363Z,24.00
2023-05-04T18:21:15.542Z,24.00
2023-05-04T18:23:47.414Z,23.80
2023-05-04T18:31:49.602Z,23.40
2023-05-04T18:34:22.414Z,23.20
2023-05-04T18:36:54.475Z,23.10
2023-05-04T18:42:01.764Z,22.80
2023-05-04T18:44:34.560Z,22.70
2023-05-04T18:47:07.841Z,22.70
2023-05-04T18:49:40.601Z,22.70
2023-05-04T18:52:12.530Z,22.60
2023-05-04T18:57:36.968Z,22.10
2023-05-04T19:00:10.649Z,22.00
2023-05-04T19:02:43.366Z,21.90
2023-05-04T19:05:15.356Z,21.70
2023-05-04T19:07:50.695Z,21.60
2023-05-04T19:10:23.030Z,21.40
2023-05-04T19:15:28.598Z,21.10
2023-05-04T19:18:01.839Z,21.00
2023-05-04T19:20:37.588Z,20.90
2023-05-04T19:23:12.530Z,20.90
2023-05-04T19:25:45.260Z,20.90
2023-05-04T19:28:19.467Z,21.00
2023-05-04T19:33:36.292Z,20.80
2023-05-04T19:38:50.213Z,20.90
2023-05-04T19:43:58.887Z,21.10
2023-05-04T19:46:32.357Z,21.00
2023-05-04T19:54:13.662Z,21.10
2023-05-04T19:56:46.298Z,21.20
2023-05-04T19:59:22.852Z,21.30
2023-05-04T20:01:55.237Z,21.20
2023-05-04T20:04:28.650Z,21.10
2023-05-04T20:07:01.555Z,21.10
2023-05-04T20:09:33.863Z,21.00
2023-05-04T20:12:06.416Z,20.90
2023-05-04T20:14:39.368Z,20.70
2023-05-04T20:17:12.467Z,20.80
2023-05-04T20:19:46.510Z,20.80
2023-05-04T20:24:51.831Z,20.60
2023-05-04T20:27:23.885Z,20.90
2023-05-04T20:32:30.426Z,20.50
2023-05-04T20:40:32.452Z,19.80
2023-05-04T20:43:05.275Z,20.00
2023-05-04T20:45:38.083Z,19.90
2023-05-04T20:48:09.967Z,19.70
2023-05-04T20:50:42.704Z,19.70
2023-05-04T20:58:41.188Z,19.30
2023-05-04T21:01:14.195Z,19.30
2023-05-04T21:03:47.147Z,19.10
2023-05-04T21:06:19.123Z,19.10
2023-05-04T21:08:51.965Z,19.00
2023-05-04T21:13:56.518Z,19.00
2023-05-04T21:19:01.909Z,18.80
2023-05-04T21:21:39.385Z,18.60
2023-05-04T21:24:13.276Z,18.60
2023-05-04T21:26:46.369Z,18.70
2023-05-04T21:29:19.505Z,18.60
2023-05-04T21:31:52.086Z,18.80
2023-05-04T21:34:24.869Z,18.90
2023-05-04T21:36:58.028Z,18.90
2023-05-04T21:39:30.424Z,18.70
2023-05-04T21:44:36.004Z,18.70
2023-05-04T21:47:07.913Z,18.60
2023-05-04T21:49:40.887Z,18.50
2023-05-04T21:52:32.638Z,18.50
2023-05-04T21:55:05.107Z,18.50
2023-05-04T22:00:18.152Z,18.20
2023-05-04T22:08:00.809Z,18.00
2023-05-04T22:15:49.311Z,17.80
2023-05-04T22:18:22.494Z,17.60
2023-05-04T22:20:55.316Z,17.60
2023-05-04T22:23:27.239Z,17.60
2023-05-04T22:25:59.979Z,17.60
2023-05-04T22:28:32.312Z,17.50
2023-05-04T22:31:06.212Z,17.50
2023-05-04T22:33:38.617Z,17.50
2023-05-04T22:36:12.246Z,17.40
2023-05-04T22:43:49.506Z,17.30
2023-05-04T22:48:54.656Z,17.20
2023-05-04T22:51:27.825Z,17.10
2023-05-04T22:53:59.834Z,17.20
2023-05-04T22:56:33.458Z,17.20
2023-05-04T23:01:43.704Z,17.10
2023-05-04T23:04:16.626Z,17.10
2023-05-04T23:06:48.901Z,17.20
2023-05-04T23:09:21.231Z,17.20
2023-05-04T23:11:53.843Z,17.20
2023-05-04T23:14:26.532Z,17.20
2023-05-04T23:16:59.511Z,17.00
2023-05-04T23:19:32.349Z,16.90
2023-05-04T23:22:05.042Z,16.90
2023-05-04T23:24:37.173Z,16.90
2023-05-04T23:27:11.531Z,17.00
2023-05-04T23:29:43.848Z,17.00
2023-05-04T23:34:49.055Z,17.00
2023-05-04T23:39:54.094Z,17.20
2023-05-04T23:44:59.212Z,17.40
2023-05-04T23:50:05.621Z,17.50
2023-05-04T23:52:37.961Z,17.50
2023-05-04T23:55:10.646Z,17.40
2023-05-04T23:57:45.837Z,17.30
